sensor_id;sensor_type;location;lat;lon;timestamp;P1;durP1;ratioP1;P2;durP2;ratioP2
13208;SDS011;6669;42.678;23.332;2022-09-23T00:02:00;3.40;;;3.10;;
13208;SDS011;6669;42.678;23.332;2022-09-23T00:04:28;3.03;;;2.73;;
13208;SDS011;6669;42.678;23.332;2022-09-23T00:06:57;5.73;;;3.07;;
13208;SDS011;6669;42.678;23.332;2022-09-23T00:09:25;3.07;;;2.77;;
13208;SDS011;6669;42.678;23.332;2022-09-23T00:11:53;2.93;;;2.63;;
13208;SDS011;6669;42.678;23.332;2022-09-23T00:14:21;3.70;;;3.30;;
13208;SDS011;6669;42.678;23.332;2022-09-23T00:16:50;3.60;;;3.00;;
13208;SDS011;6669;42.678;23.332;2022-09-23T00:19:18;3.20;;;2.90;;
13208;SDS011;6669;42.678;23.332;2022-09-23T00:21:46;3.90;;;3.50;;
13208;SDS011;6669;42.678;23.332;2022-09-23T00:24:16;3.60;;;3.30;;
13208;SDS011;6669;42.678;23.332;2022-09-23T00:26:44;3.20;;;2.90;;
13208;SDS011;6669;42.678;23.332;2022-09-23T00:29:12;5.07;;;3.33;;
13208;SDS011;6669;42.678;23.332;2022-09-23T00:31:41;3.10;;;2.83;;
13208;SDS011;6669;42.678;23.332;2022-09-23T00:34:09;2.67;;;2.47;;
13208;SDS011;6669;42.678;23.332;2022-09-23T00:36:37;3.60;;;2.93;;
13208;SDS011;6669;42.678;23.332;2022-09-23T00:39:05;3.57;;;3.03;;
13208;SDS011;6669;42.678;23.332;2022-09-23T00:41:35;4.37;;;3.60;;
13208;SDS011;6669;42.678;23.332;2022-09-23T00:47:04;3.17;;;2.87;;
13208;SDS011;6669;42.678;23.332;2022-09-23T00:49:39;4.03;;;2.77;;
13208;SDS011;6669;42.678;23.332;2022-09-23T00:52:08;3.30;;;2.87;;
13208;SDS011;6669;42.678;23.332;2022-09-23T00:54:43;3.20;;;2.90;;
13208;SDS011;6669;42.678;23.332;2022-09-23T00:57:14;3.10;;;2.80;;
13208;SDS011;6669;42.678;23.332;2022-09-23T00:59:45;3.63;;;3.17;;
13208;SDS011;6669;42.678;23.332;2022-09-23T01:02:16;5.50;;;3.10;;
13208;SDS011;6669;42.678;23.332;2022-09-23T01:04:46;3.27;;;2.97;;
13208;SDS011;6669;42.678;23.332;2022-09-23T01:07:15;3.67;;;3.37;;
13208;SDS011;6669;42.678;23.332;2022-09-23T01:09:44;3.33;;;3.03;;
13208;SDS011;6669;42.678;23.332;2022-09-23T01:12:18;3.57;;;3.27;;
13208;SDS011;6669;42.678;23.332;2022-09-23T01:15:00;3.47;;;3.17;;
13208;SDS011;6669;42.678;23.332;2022-09-23T01:17:36;3.40;;;3.00;;
13208;SDS011;6669;42.678;23.332;2022-09-23T01:20:14;3.57;;;3.00;;
13208;SDS011;6669;42.678;23.332;2022-09-23T01:22:56;4.03;;;3.20;;
13208;SDS011;6669;42.678;23.332;2022-09-23T01:25:41;3.20;;;2.90;;
13208;SDS011;6669;42.678;23.332;2022-09-23T01:28:31;3.90;;;2.87;;
13208;SDS011;6669;42.678;23.332;2022-09-23T01:31:18;3.37;;;2.80;;
13208;SDS011;6669;42.678;23.332;2022-09-23T01:33:51;3.23;;;2.93;;
13208;SDS011;6669;42.678;23.332;2022-09-23T01:36:25;3.50;;;3.17;;
13208;SDS011;6669;42.678;23.332;2022-09-23T01:39:05;3.07;;;2.80;;
13208;SDS011;6669;42.678;23.332;2022-09-23T01:41:45;3.90;;;3.30;;
13208;SDS011;6669;42.678;23.332;2022-09-23T01:44:20;3.13;;;2.83;;
13208;SDS011;6669;42.678;23.332;2022-09-23T01:46:53;3.17;;;2.90;;
13208;SDS011;6669;42.678;23.332;2022-09-23T01:49:26;4.93;;;3.10;;
13208;SDS011;6669;42.678;23.332;2022-09-23T01:51:59;4.03;;;3.30;;
13208;SDS011;6669;42.678;23.332;2022-09-23T01:54:36;2.80;;;2.60;;
13208;SDS011;6669;42.678;23.332;2022-09-23T01:57:07;3.40;;;3.10;;
13208;SDS011;6669;42.678;23.332;2022-09-23T01:59:39;3.53;;;3.23;;
13208;SDS011;6669;42.678;23.332;2022-09-23T02:02:14;3.20;;;2.87;;
13208;SDS011;6669;42.678;23.332;2022-09-23T02:04:48;3.77;;;3.40;;
13208;SDS011;6669;42.678;23.332;2022-09-23T02:07:23;3.83;;;3.23;;
13208;SDS011;6669;42.678;23.332;2022-09-23T02:09:57;3.77;;;3.37;;
13208;SDS011;6669;42.678;23.332;2022-09-23T02:12:31;3.57;;;3.27;;
13208;SDS011;6669;42.678;23.332;2022-09-23T02:15:05;3.87;;;3.27;;
13208;SDS011;6669;42.678;23.332;2022-09-23T02:17:46;4.57;;;3.43;;
13208;SDS011;6669;42.678;23.332;2022-09-23T02:20:18;4.23;;;3.80;;
13208;SDS011;6669;42.678;23.332;2022-09-23T02:22:52;3.93;;;3.47;;
13208;SDS011;6669;42.678;23.332;2022-09-23T02:25:28;3.73;;;3.27;;
13208;SDS011;6669;42.678;23.332;2022-09-23T02:28:04;3.20;;;2.90;;
13208;SDS011;6669;42.678;23.332;2022-09-23T02:30:39;3.57;;;3.27;;
13208;SDS011;6669;42.678;23.332;2022-09-23T02:33:18;3.77;;;3.37;;
13208;SDS011;6669;42.678;23.332;2022-09-23T02:35:50;3.73;;;3.43;;
13208;SDS011;6669;42.678;23.332;2022-09-23T02:38:24;3.30;;;3.00;;
13208;SDS011;6669;42.678;23.332;2022-09-23T02:41:02;3.40;;;2.80;;
13208;SDS011;6669;42.678;23.332;2022-09-23T02:43:35;4.10;;;3.20;;
13208;SDS011;6669;42.678;23.332;2022-09-23T02:46:10;3.97;;;3.30;;
13208;SDS011;6669;42.678;23.332;2022-09-23T02:48:40;4.13;;;3.47;;
13208;SDS011;6669;42.678;23.332;2022-09-23T02:51:12;4.07;;;3.20;;
13208;SDS011;6669;42.678;23.332;2022-09-23T02:53:41;4.80;;;3.80;;
13208;SDS011;6669;42.678;23.332;2022-09-23T02:56:12;3.97;;;3.57;;
13208;SDS011;6669;42.678;23.332;2022-09-23T02:58:42;4.60;;;3.63;;
13208;SDS011;6669;42.678;23.332;2022-09-23T03:01:13;6.13;;;4.57;;
13208;SDS011;6669;42.678;23.332;2022-09-23T03:03:52;5.53;;;4.17;;
13208;SDS011;6669;42.678;23.332;2022-09-23T03:06:31;5.47;;;3.57;;
13208;SDS011;6669;42.678;23.332;2022-09-23T03:09:07;5.10;;;4.23;;
13208;SDS011;6669;42.678;23.332;2022-09-23T03:11:39;4.57;;;3.93;;
13208;SDS011;6669;42.678;23.332;2022-09-23T03:14:11;4.43;;;3.90;;
13208;SDS011;6669;42.678;23.332;2022-09-23T03:16:50;5.60;;;3.90;;
13208;SDS011;6669;42.678;23.332;2022-09-23T03:19:25;4.83;;;4.33;;
13208;SDS011;6669;42.678;23.332;2022-09-23T03:21:59;5.63;;;3.23;;
13208;SDS011;6669;42.678;23.332;2022-09-23T03:24:33;4.73;;;4.17;;
13208;SDS011;6669;42.678;23.332;2022-09-23T03:27:06;4.17;;;3.50;;
13208;SDS011;6669;42.678;23.332;2022-09-23T03:29:39;3.93;;;3.53;;
13208;SDS011;6669;42.678;23.332;2022-09-23T03:32:12;4.50;;;4.07;;
13208;SDS011;6669;42.678;23.332;2022-09-23T03:34:45;5.17;;;4.27;;
13208;SDS011;6669;42.678;23.332;2022-09-23T03:37:16;4.87;;;4.20;;
13208;SDS011;6669;42.678;23.332;2022-09-23T03:39:50;4.27;;;3.83;;
13208;SDS011;6669;42.678;23.332;2022-09-23T03:42:22;5.10;;;3.50;;
13208;SDS011;6669;42.678;23.332;2022-09-23T03:44:52;4.63;;;3.90;;
13208;SDS011;6669;42.678;23.332;2022-09-23T03:47:23;3.80;;;3.50;;
13208;SDS011;6669;42.678;23.332;2022-09-23T03:49:53;4.30;;;3.70;;
13208;SDS011;6669;42.678;23.332;2022-09-23T03:52:22;4.90;;;3.73;;
13208;SDS011;6669;42.678;23.332;2022-09-23T03:54:52;4.67;;;4.03;;
13208;SDS011;6669;42.678;23.332;2022-09-23T03:57:20;4.23;;;3.83;;
13208;SDS011;6669;42.678;23.332;2022-09-23T03:59:49;4.87;;;4.20;;
13208;SDS011;6669;42.678;23.332;2022-09-23T04:02:17;4.53;;;4.03;;
13208;SDS011;6669;42.678;23.332;2022-09-23T04:04:46;4.30;;;3.57;;
13208;SDS011;6669;42.678;23.332;2022-09-23T04:07:15;5.07;;;4.10;;
13208;SDS011;6669;42.678;23.332;2022-09-23T04:09:44;3.77;;;3.40;;
13208;SDS011;6669;42.678;23.332;2022-09-23T04:12:12;4.70;;;3.67;;
13208;SDS011;6669;42.678;23.332;2022-09-23T04:14:41;5.30;;;3.90;;
13208;SDS011;6669;42.678;23.332;2022-09-23T04:17:09;3.90;;;3.43;;
13208;SDS011;6669;42.678;23.332;2022-09-23T04:19:38;3.73;;;3.30;;
13208;SDS011;6669;42.678;23.332;2022-09-23T04:22:06;4.70;;;3.80;;
13208;SDS011;6669;42.678;23.332;2022-09-23T04:24:36;4.30;;;3.53;;
13208;SDS011;6669;42.678;23.332;2022-09-23T04:27:04;4.70;;;3.90;;
13208;SDS011;6669;42.678;23.332;2022-09-23T04:29:32;5.03;;;3.70;;
13208;SDS011;6669;42.678;23.332;2022-09-23T04:32:00;6.07;;;3.87;;
13208;SDS011;6669;42.678;23.332;2022-09-23T04:34:28;7.17;;;3.87;;
13208;SDS011;6669;42.678;23.332;2022-09-23T04:36:56;4.30;;;3.83;;
13208;SDS011;6669;42.678;23.332;2022-09-23T04:39:24;4.37;;;3.27;;
13208;SDS011;6669;42.678;23.332;2022-09-23T04:41:53;5.37;;;4.17;;
13208;SDS011;6669;42.678;23.332;2022-09-23T04:44:21;5.00;;;4.50;;
13208;SDS011;6669;42.678;23.332;2022-09-23T04:46:49;5.23;;;4.73;;
13208;SDS011;6669;42.678;23.332;2022-09-23T04:49:18;5.10;;;4.57;;
13208;SDS011;6669;42.678;23.332;2022-09-23T04:51:45;6.70;;;5.40;;
13208;SDS011;6669;42.678;23.332;2022-09-23T04:54:14;5.83;;;4.53;;
13208;SDS011;6669;42.678;23.332;2022-09-23T04:56:41;6.57;;;4.10;;
13208;SDS011;6669;42.678;23.332;2022-09-23T04:59:11;7.37;;;4.37;;
13208;SDS011;6669;42.678;23.332;2022-09-23T05:01:39;6.03;;;4.43;;
13208;SDS011;6669;42.678;23.332;2022-09-23T05:04:08;4.37;;;3.97;;
13208;SDS011;6669;42.678;23.332;2022-09-23T05:06:39;4.80;;;4.30;;
13208;SDS011;6669;42.678;23.332;2022-09-23T05:09:12;5.53;;;4.47;;
13208;SDS011;6669;42.678;23.332;2022-09-23T05:11:42;5.13;;;4.47;;
13208;SDS011;6669;42.678;23.332;2022-09-23T05:14:12;4.37;;;3.97;;
13208;SDS011;6669;42.678;23.332;2022-09-23T05:16:40;4.67;;;4.17;;
13208;SDS011;6669;42.678;23.332;2022-09-23T05:19:08;4.90;;;4.40;;
13208;SDS011;6669;42.678;23.332;2022-09-23T05:21:37;4.67;;;4.03;;
13208;SDS011;6669;42.678;23.332;2022-09-23T05:24:05;6.20;;;4.97;;
13208;SDS011;6669;42.678;23.332;2022-09-23T05:26:33;4.70;;;4.23;;
13208;SDS011;6669;42.678;23.332;2022-09-23T05:29:01;5.17;;;4.33;;
13208;SDS011;6669;42.678;23.332;2022-09-23T05:31:30;3.80;;;3.50;;
13208;SDS011;6669;42.678;23.332;2022-09-23T05:33:59;3.97;;;3.50;;
13208;SDS011;6669;42.678;23.332;2022-09-23T05:36:28;3.80;;;3.40;;
13208;SDS011;6669;42.678;23.332;2022-09-23T05:39:03;4.03;;;3.57;;
13208;SDS011;6669;42.678;23.332;2022-09-23T05:41:32;4.60;;;3.43;;
13208;SDS011;6669;42.678;23.332;2022-09-23T05:44:00;5.10;;;3.63;;
13208;SDS011;6669;42.678;23.332;2022-09-23T05:46:29;3.13;;;2.73;;
13208;SDS011;6669;42.678;23.332;2022-09-23T05:48:59;4.07;;;3.43;;
13208;SDS011;6669;42.678;23.332;2022-09-23T05:51:29;4.20;;;3.80;;
13208;SDS011;6669;42.678;23.332;2022-09-23T05:53:58;3.47;;;2.53;;
13208;SDS011;6669;42.678;23.332;2022-09-23T05:56:28;2.47;;;2.27;;
13208;SDS011;6669;42.678;23.332;2022-09-23T05:58:57;2.83;;;2.57;;
13208;SDS011;6669;42.678;23.332;2022-09-23T06:01:28;4.47;;;2.87;;
13208;SDS011;6669;42.678;23.332;2022-09-23T06:04:01;3.40;;;2.63;;
13208;SDS011;6669;42.678;23.332;2022-09-23T06:06:31;11.43;;;6.20;;
13208;SDS011;6669;42.678;23.332;2022-09-23T06:09:01;3.60;;;3.30;;
13208;SDS011;6669;42.678;23.332;2022-09-23T06:11:31;3.13;;;2.83;;
13208;SDS011;6669;42.678;23.332;2022-09-23T06:14:01;3.70;;;2.77;;
13208;SDS011;6669;42.678;23.332;2022-09-23T06:16:30;2.57;;;2.10;;
13208;SDS011;6669;42.678;23.332;2022-09-23T06:19:01;2.83;;;2.63;;
13208;SDS011;6669;42.678;23.332;2022-09-23T06:21:33;2.60;;;2.40;;
13208;SDS011;6669;42.678;23.332;2022-09-23T06:24:03;3.93;;;3.47;;
13208;SDS011;6669;42.678;23.332;2022-09-23T06:26:32;3.70;;;3.20;;
13208;SDS011;6669;42.678;23.332;2022-09-23T06:29:02;3.37;;;2.50;;
13208;SDS011;6669;42.678;23.332;2022-09-23T06:31:31;3.30;;;3.00;;
13208;SDS011;6669;42.678;23.332;2022-09-23T06:33:59;3.57;;;2.77;;
13208;SDS011;6669;42.678;23.332;2022-09-23T06:36:38;3.07;;;2.73;;
13208;SDS011;6669;42.678;23.332;2022-09-23T06:39:10;2.97;;;2.60;;
13208;SDS011;6669;42.678;23.332;2022-09-23T06:41:38;2.50;;;2.30;;
13208;SDS011;6669;42.678;23.332;2022-09-23T06:44:07;2.60;;;2.40;;
13208;SDS011;6669;42.678;23.332;2022-09-23T06:46:35;3.67;;;2.77;;
13208;SDS011;6669;42.678;23.332;2022-09-23T06:49:04;3.53;;;3.23;;
13208;SDS011;6669;42.678;23.332;2022-09-23T06:51:32;4.20;;;2.70;;
13208;SDS011;6669;42.678;23.332;2022-09-23T06:54:00;2.33;;;1.93;;
13208;SDS011;6669;42.678;23.332;2022-09-23T06:56:28;3.13;;;2.83;;
13208;SDS011;6669;42.678;23.332;2022-09-23T06:59:04;2.80;;;2.30;;
13208;SDS011;6669;42.678;23.332;2022-09-23T07:01:32;2.93;;;2.63;;
13208;SDS011;6669;42.678;23.332;2022-09-23T07:04:01;3.90;;;3.30;;
13208;SDS011;6669;42.678;23.332;2022-09-23T07:06:30;3.57;;;2.90;;
13208;SDS011;6669;42.678;23.332;2022-09-23T07:08:58;3.07;;;2.80;;
13208;SDS011;6669;42.678;23.332;2022-09-23T07:11:26;3.60;;;3.13;;
13208;SDS011;6669;42.678;23.332;2022-09-23T07:13:54;3.63;;;2.67;;
13208;SDS011;6669;42.678;23.332;2022-09-23T07:16:22;2.83;;;2.53;;
13208;SDS011;6669;42.678;23.332;2022-09-23T07:18:50;3.03;;;2.57;;
13208;SDS011;6669;42.678;23.332;2022-09-23T07:21:19;2.73;;;2.07;;
13208;SDS011;6669;42.678;23.332;2022-09-23T07:23:48;2.73;;;2.30;;
13208;SDS011;6669;42.678;23.332;2022-09-23T07:26:17;3.37;;;2.43;;
13208;SDS011;6669;42.678;23.332;2022-09-23T07:28:46;2.60;;;2.40;;
13208;SDS011;6669;42.678;23.332;2022-09-23T07:31:15;2.57;;;2.37;;
13208;SDS011;6669;42.678;23.332;2022-09-23T07:34:00;3.70;;;2.70;;
13208;SDS011;6669;42.678;23.332;2022-09-23T07:36:28;3.10;;;2.80;;
13208;SDS011;6669;42.678;23.332;2022-09-23T07:38:59;3.00;;;2.70;;
13208;SDS011;6669;42.678;23.332;2022-09-23T07:41:29;3.13;;;2.40;;
13208;SDS011;6669;42.678;23.332;2022-09-23T07:43:58;2.63;;;2.43;;
13208;SDS011;6669;42.678;23.332;2022-09-23T07:46:27;2.60;;;2.40;;
13208;SDS011;6669;42.678;23.332;2022-09-23T07:48:57;3.53;;;2.50;;
13208;SDS011;6669;42.678;23.332;2022-09-23T07:51:26;3.00;;;2.43;;
13208;SDS011;6669;42.678;23.332;2022-09-23T07:54:02;2.40;;;2.20;;
13208;SDS011;6669;42.678;23.332;2022-09-23T07:56:33;3.17;;;2.40;;
13208;SDS011;6669;42.678;23.332;2022-09-23T07:59:01;2.90;;;2.63;;
13208;SDS011;6669;42.678;23.332;2022-09-23T08:01:30;3.40;;;2.77;;
13208;SDS011;6669;42.678;23.332;2022-09-23T08:04:00;3.40;;;2.70;;
13208;SDS011;6669;42.678;23.332;2022-09-23T08:06:29;2.50;;;2.30;;
13208;SDS011;6669;42.678;23.332;2022-09-23T08:08:58;2.30;;;2.10;;
13208;SDS011;6669;42.678;23.332;2022-09-23T08:11:28;2.63;;;2.33;;
13208;SDS011;6669;42.678;23.332;2022-09-23T08:13:56;2.63;;;2.40;;
13208;SDS011;6669;42.678;23.332;2022-09-23T08:16:24;3.60;;;2.43;;
13208;SDS011;6669;42.678;23.332;2022-09-23T08:18:53;2.57;;;2.37;;
13208;SDS011;6669;42.678;23.332;2022-09-23T08:21:21;4.67;;;2.30;;
13208;SDS011;6669;42.678;23.332;2022-09-23T08:23:49;3.27;;;2.40;;
13208;SDS011;6669;42.678;23.332;2022-09-23T08:26:17;2.70;;;2.40;;
13208;SDS011;6669;42.678;23.332;2022-09-23T08:28:49;2.70;;;2.50;;
13208;SDS011;6669;42.678;23.332;2022-09-23T08:31:19;2.50;;;2.30;;
13208;SDS011;6669;42.678;23.332;2022-09-23T08:33:52;2.35;;;2.05;;
13208;SDS011;6669;42.678;23.332;2022-09-23T08:36:20;2.03;;;1.80;;
13208;SDS011;6669;42.678;23.332;2022-09-23T08:38:48;2.17;;;1.97;;
13208;SDS011;6669;42.678;23.332;2022-09-23T08:41:18;2.47;;;2.27;;
13208;SDS011;6669;42.678;23.332;2022-09-23T08:43:56;2.23;;;2.00;;
13208;SDS011;6669;42.678;23.332;2022-09-23T08:46:30;2.60;;;2.33;;
13208;SDS011;6669;42.678;23.332;2022-09-23T08:49:02;2.23;;;2.03;;
13208;SDS011;6669;42.678;23.332;2022-09-23T08:51:34;2.13;;;2.03;;
13208;SDS011;6669;42.678;23.332;2022-09-23T08:54:09;2.83;;;2.23;;
13208;SDS011;6669;42.678;23.332;2022-09-23T08:56:38;2.30;;;2.10;;
13208;SDS011;6669;42.678;23.332;2022-09-23T08:59:12;2.40;;;2.20;;
13208;SDS011;6669;42.678;23.332;2022-09-23T09:01:45;2.20;;;1.80;;
13208;SDS011;6669;42.678;23.332;2022-09-23T09:04:17;1.97;;;1.80;;
13208;SDS011;6669;42.678;23.332;2022-09-23T09:06:49;2.10;;;1.90;;
13208;SDS011;6669;42.678;23.332;2022-09-23T09:09:38;2.20;;;2.00;;
13208;SDS011;6669;42.678;23.332;2022-09-23T09:12:12;1.90;;;1.75;;
13208;SDS011;6669;42.678;23.332;2022-09-23T09:14:47;2.20;;;1.98;;
13208;SDS011;6669;42.678;23.332;2022-09-23T09:17:22;2.10;;;1.90;;
13208;SDS011;6669;42.678;23.332;2022-09-23T09:20:02;1.65;;;1.55;;
13208;SDS011;6669;42.678;23.332;2022-09-23T09:22:45;2.45;;;2.25;;
13208;SDS011;6669;42.678;23.332;2022-09-23T09:25:27;1.88;;;1.67;;
13208;SDS011;6669;42.678;23.332;2022-09-23T09:28:07;2.47;;;2.03;;
13208;SDS011;6669;42.678;23.332;2022-09-23T09:30:44;2.47;;;2.28;;
13208;SDS011;6669;42.678;23.332;2022-09-23T09:33:18;2.42;;;1.77;;
13208;SDS011;6669;42.678;23.332;2022-09-23T09:35:54;1.50;;;1.40;;
13208;SDS011;6669;42.678;23.332;2022-09-23T09:38:34;1.90;;;1.80;;
13208;SDS011;6669;42.678;23.332;2022-09-23T09:41:08;1.70;;;1.60;;
13208;SDS011;6669;42.678;23.332;2022-09-23T09:43:39;1.67;;;1.58;;
13208;SDS011;6669;42.678;23.332;2022-09-23T09:46:22;1.88;;;1.73;;
13208;SDS011;6669;42.678;23.332;2022-09-23T09:49:01;2.83;;;1.23;;
13208;SDS011;6669;42.678;23.332;2022-09-23T09:51:34;1.90;;;1.80;;
13208;SDS011;6669;42.678;23.332;2022-09-23T09:54:15;1.70;;;1.60;;
13208;SDS011;6669;42.678;23.332;2022-09-23T09:56:48;1.38;;;1.30;;
13208;SDS011;6669;42.678;23.332;2022-09-23T09:59:18;1.63;;;1.52;;
13208;SDS011;6669;42.678;23.332;2022-09-23T10:01:56;1.52;;;1.40;;
13208;SDS011;6669;42.678;23.332;2022-09-23T10:04:39;1.40;;;1.30;;
13208;SDS011;6669;42.678;23.332;2022-09-23T10:07:10;1.98;;;1.42;;
13208;SDS011;6669;42.678;23.332;2022-09-23T10:09:46;1.65;;;1.30;;
13208;SDS011;6669;42.678;23.332;2022-09-23T10:12:15;1.40;;;1.30;;
13208;SDS011;6669;42.678;23.332;2022-09-23T10:14:45;1.00;;;1.00;;
13208;SDS011;6669;42.678;23.332;2022-09-23T10:17:19;1.40;;;1.30;;
13208;SDS011;6669;42.678;23.332;2022-09-23T10:19:48;1.73;;;1.63;;
13208;SDS011;6669;42.678;23.332;2022-09-23T10:22:23;1.52;;;1.42;;
13208;SDS011;6669;42.678;23.332;2022-09-23T10:24:56;1.58;;;1.30;;
13208;SDS011;6669;42.678;23.332;2022-09-23T10:27:29;1.50;;;1.40;;
13208;SDS011;6669;42.678;23.332;2022-09-23T10:30:00;1.50;;;1.40;;
13208;SDS011;6669;42.678;23.332;2022-09-23T10:32:32;1.60;;;1.50;;
13208;SDS011;6669;42.678;23.332;2022-09-23T10:35:10;1.30;;;1.20;;
13208;SDS011;6669;42.678;23.332;2022-09-23T10:37:40;1.60;;;1.50;;
13208;SDS011;6669;42.678;23.332;2022-09-23T10:40:15;1.55;;;1.45;;
13208;SDS011;6669;42.678;23.332;2022-09-23T10:46:11;1.52;;;1.42;;
13208;SDS011;6669;42.678;23.332;2022-09-23T10:52:15;1.60;;;1.50;;
13208;SDS011;6669;42.678;23.332;2022-09-23T10:54:56;1.13;;;1.10;;
13208;SDS011;6669;42.678;23.332;2022-09-23T10:57:38;1.40;;;1.30;;
13208;SDS011;6669;42.678;23.332;2022-09-23T11:00:19;1.35;;;1.25;;
13208;SDS011;6669;42.678;23.332;2022-09-23T11:02:54;1.40;;;1.30;;
13208;SDS011;6669;42.678;23.332;2022-09-23T11:05:38;2.47;;;1.38;;
13208;SDS011;6669;42.678;23.332;2022-09-23T11:08:22;1.20;;;1.13;;
13208;SDS011;6669;42.678;23.332;2022-09-23T11:11:05;1.52;;;1.42;;
13208;SDS011;6669;42.678;23.332;2022-09-23T11:13:49;1.35;;;1.25;;
13208;SDS011;6669;42.678;23.332;2022-09-23T11:16:34;1.50;;;1.40;;
13208;SDS011;6669;42.678;23.332;2022-09-23T11:19:18;1.15;;;1.15;;
13208;SDS011;6669;42.678;23.332;2022-09-23T11:22:02;1.45;;;1.17;;
13208;SDS011;6669;42.678;23.332;2022-09-23T11:24:46;0.75;;;0.75;;
13208;SDS011;6669;42.678;23.332;2022-09-23T11:27:28;0.80;;;0.80;;
13208;SDS011;6669;42.678;23.332;2022-09-23T11:30:07;0.95;;;0.82;;
13208;SDS011;6669;42.678;23.332;2022-09-23T11:32:50;0.57;;;0.57;;
13208;SDS011;6669;42.678;23.332;2022-09-23T11:35:30;0.57;;;0.57;;
13208;SDS011;6669;42.678;23.332;2022-09-23T11:38:07;0.88;;;0.88;;
13208;SDS011;6669;42.678;23.332;2022-09-23T11:40:39;0.93;;;0.93;;
13208;SDS011;6669;42.678;23.332;2022-09-23T11:43:14;0.70;;;0.70;;
13208;SDS011;6669;42.678;23.332;2022-09-23T11:45:48;0.70;;;0.70;;
13208;SDS011;6669;42.678;23.332;2022-09-23T11:48:21;0.90;;;0.90;;
13208;SDS011;6669;42.678;23.332;2022-09-23T11:50:54;1.10;;;1.00;;
13208;SDS011;6669;42.678;23.332;2022-09-23T11:53:31;1.00;;;0.90;;
13208;SDS011;6669;42.678;23.332;2022-09-23T11:56:06;2.03;;;0.93;;
13208;SDS011;6669;42.678;23.332;2022-09-23T11:58:59;0.80;;;0.80;;
13208;SDS011;6669;42.678;23.332;2022-09-23T12:01:33;0.68;;;0.68;;
13208;SDS011;6669;42.678;23.332;2022-09-23T12:04:11;1.17;;;1.08;;
13208;SDS011;6669;42.678;23.332;2022-09-23T12:06:47;0.88;;;0.88;;
13208;SDS011;6669;42.678;23.332;2022-09-23T12:09:23;0.73;;;0.73;;
13208;SDS011;6669;42.678;23.332;2022-09-23T12:12:17;0.90;;;0.90;;
13208;SDS011;6669;42.678;23.332;2022-09-23T12:14:54;1.33;;;1.23;;
13208;SDS011;6669;42.678;23.332;2022-09-23T12:17:38;1.20;;;1.10;;
13208;SDS011;6669;42.678;23.332;2022-09-23T12:23:24;1.27;;;1.17;;
13208;SDS011;6669;42.678;23.332;2022-09-23T12:26:07;0.95;;;0.93;;
13208;SDS011;6669;42.678;23.332;2022-09-23T12:28:42;1.40;;;1.30;;
13208;SDS011;6669;42.678;23.332;2022-09-23T12:31:13;1.38;;;1.27;;
13208;SDS011;6669;42.678;23.332;2022-09-23T12:33:47;1.25;;;1.10;;
13208;SDS011;6669;42.678;23.332;2022-09-23T12:36:19;1.20;;;1.10;;
13208;SDS011;6669;42.678;23.332;2022-09-23T12:38:53;1.30;;;1.13;;
13208;SDS011;6669;42.678;23.332;2022-09-23T12:41:29;1.98;;;1.33;;
13208;SDS011;6669;42.678;23.332;2022-09-23T12:44:11;1.20;;;1.10;;
13208;SDS011;6669;42.678;23.332;2022-09-23T12:46:42;1.30;;;1.20;;
13208;SDS011;6669;42.678;23.332;2022-09-23T12:49:21;1.42;;;1.30;;
13208;SDS011;6669;42.678;23.332;2022-09-23T12:52:11;1.10;;;1.10;;
13208;SDS011;6669;42.678;23.332;2022-09-23T12:54:44;2.05;;;1.50;;
13208;SDS011;6669;42.678;23.332;2022-09-23T12:57:38;1.50;;;1.40;;
13208;SDS011;6669;42.678;23.332;2022-09-23T13:00:20;1.75;;;1.20;;
13208;SDS011;6669;42.678;23.332;2022-09-23T13:02:54;1.33;;;1.13;;
13208;SDS011;6669;42.678;23.332;2022-09-23T13:05:50;1.23;;;1.13;;
13208;SDS011;6669;42.678;23.332;2022-09-23T13:08:37;1.23;;;1.13;;
13208;SDS011;6669;42.678;23.332;2022-09-23T13:11:12;1.23;;;1.13;;
13208;SDS011;6669;42.678;23.332;2022-09-23T13:13:46;1.48;;;1.38;;
13208;SDS011;6669;42.678;23.332;2022-09-23T13:16:19;1.08;;;0.98;;
13208;SDS011;6669;42.678;23.332;2022-09-23T13:18:49;1.40;;;1.30;;
13208;SDS011;6669;42.678;23.332;2022-09-23T13:24:33;1.20;;;1.00;;
13208;SDS011;6669;42.678;23.332;2022-09-23T13:27:10;1.10;;;1.10;;
13208;SDS011;6669;42.678;23.332;2022-09-23T13:29:44;1.10;;;1.00;;
13208;SDS011;6669;42.678;23.332;2022-09-23T13:32:17;0.90;;;0.90;;
13208;SDS011;6669;42.678;23.332;2022-09-23T13:34:51;1.05;;;1.02;;
13208;SDS011;6669;42.678;23.332;2022-09-23T13:37:25;0.93;;;0.93;;
13208;SDS011;6669;42.678;23.332;2022-09-23T13:40:07;1.00;;;1.00;;
13208;SDS011;6669;42.678;23.332;2022-09-23T13:42:42;1.20;;;1.10;;
13208;SDS011;6669;42.678;23.332;2022-09-23T13:45:16;1.10;;;1.00;;
13208;SDS011;6669;42.678;23.332;2022-09-23T13:47:47;1.13;;;1.13;;
13208;SDS011;6669;42.678;23.332;2022-09-23T13:50:18;0.80;;;0.80;;
13208;SDS011;6669;42.678;23.332;2022-09-23T13:52:51;1.30;;;1.20;;
13208;SDS011;6669;42.678;23.332;2022-09-23T13:55:25;1.90;;;1.33;;
13208;SDS011;6669;42.678;23.332;2022-09-23T13:57:57;1.15;;;1.10;;
13208;SDS011;6669;42.678;23.332;2022-09-23T14:00:29;1.20;;;1.10;;
13208;SDS011;6669;42.678;23.332;2022-09-23T14:03:00;1.02;;;1.00;;
13208;SDS011;6669;42.678;23.332;2022-09-23T14:05:31;1.20;;;1.10;;
13208;SDS011;6669;42.678;23.332;2022-09-23T14:08:00;1.40;;;1.30;;
13208;SDS011;6669;42.678;23.332;2022-09-23T14:10:29;1.35;;;1.25;;
13208;SDS011;6669;42.678;23.332;2022-09-23T14:12:57;1.17;;;1.10;;
13208;SDS011;6669;42.678;23.332;2022-09-23T14:15:27;1.40;;;1.00;;
13208;SDS011;6669;42.678;23.332;2022-09-23T14:17:58;0.65;;;0.65;;
13208;SDS011;6669;42.678;23.332;2022-09-23T14:20:29;1.20;;;1.10;;
13208;SDS011;6669;42.678;23.332;2022-09-23T14:23:04;1.45;;;1.35;;
13208;SDS011;6669;42.678;23.332;2022-09-23T14:25:32;1.00;;;1.00;;
13208;SDS011;6669;42.678;23.332;2022-09-23T14:28:02;1.40;;;1.10;;
13208;SDS011;6669;42.678;23.332;2022-09-23T14:30:31;1.13;;;1.02;;
13208;SDS011;6669;42.678;23.332;2022-09-23T14:33:00;1.20;;;1.10;;
13208;SDS011;6669;42.678;23.332;2022-09-23T14:35:37;1.17;;;1.10;;
13208;SDS011;6669;42.678;23.332;2022-09-23T14:38:08;1.48;;;1.38;;
13208;SDS011;6669;42.678;23.332;2022-09-23T14:40:54;1.73;;;1.40;;
13208;SDS011;6669;42.678;23.332;2022-09-23T14:43:37;1.60;;;1.40;;
13208;SDS011;6669;42.678;23.332;2022-09-23T14:46:13;1.00;;;0.95;;
13208;SDS011;6669;42.678;23.332;2022-09-23T14:48:50;1.33;;;1.23;;
13208;SDS011;6669;42.678;23.332;2022-09-23T14:51:20;1.42;;;1.33;;
13208;SDS011;6669;42.678;23.332;2022-09-23T14:56:51;1.33;;;1.23;;
13208;SDS011;6669;42.678;23.332;2022-09-23T14:59:25;1.60;;;1.50;;
13208;SDS011;6669;42.678;23.332;2022-09-23T15:01:55;1.40;;;1.30;;
13208;SDS011;6669;42.678;23.332;2022-09-23T15:04:27;1.25;;;1.15;;
13208;SDS011;6669;42.678;23.332;2022-09-23T15:06:58;0.90;;;0.90;;
13208;SDS011;6669;42.678;23.332;2022-09-23T15:09:30;1.33;;;0.98;;
13208;SDS011;6669;42.678;23.332;2022-09-23T15:12:00;2.08;;;1.50;;
13208;SDS011;6669;42.678;23.332;2022-09-23T15:14:32;1.10;;;1.10;;
13208;SDS011;6669;42.678;23.332;2022-09-23T15:17:12;2.33;;;1.88;;
13208;SDS011;6669;42.678;23.332;2022-09-23T15:19:48;1.30;;;1.20;;
13208;SDS011;6669;42.678;23.332;2022-09-23T15:22:18;3.33;;;2.70;;
13208;SDS011;6669;42.678;23.332;2022-09-23T15:24:46;2.08;;;1.50;;
13208;SDS011;6669;42.678;23.332;2022-09-23T15:27:26;1.42;;;1.30;;
13208;SDS011;6669;42.678;23.332;2022-09-23T15:30:12;1.55;;;1.45;;
13208;SDS011;6669;42.678;23.332;2022-09-23T15:32:43;1.25;;;1.15;;
13208;SDS011;6669;42.678;23.332;2022-09-23T15:35:12;1.95;;;1.30;;
13208;SDS011;6669;42.678;23.332;2022-09-23T15:37:41;1.42;;;1.33;;
13208;SDS011;6669;42.678;23.332;2022-09-23T15:40:13;2.00;;;1.60;;
13208;SDS011;6669;42.678;23.332;2022-09-23T15:42:46;1.55;;;1.45;;